createdAt,value
2022-08-17T00:00:33.352Z,72
2022-08-17T00:05:15.093Z,72
2022-08-17T00:10:15.101Z,73
2022-08-17T00:15:15.101Z,73
2022-08-17T00:20:15.087Z,73
2022-08-17T00:25:15.111Z,73
2022-08-17T00:30:15.111Z,73
2022-08-17T00:35:15.090Z,73
2022-08-17T00:40:15.216Z,73
2022-08-17T00:45:15.103Z,73
2022-08-17T00:50:15.097Z,73
2022-08-17T00:55:15.103Z,72
2022-08-17T01:00:15.102Z,72
2022-08-17T01:05:15.114Z,72
2022-08-17T01:10:57.080Z,73
2022-08-17T01:15:15.091Z,72
2022-08-17T01:20:15.085Z,72
2022-08-17T01:25:15.113Z,72
2022-08-17T01:30:57.511Z,72
2022-08-17T01:35:15.107Z,72
2022-08-17T01:40:15.168Z,73
2022-08-17T01:45:15.095Z,73
2022-08-17T01:50:15.097Z,73
2022-08-17T01:55:15.095Z,73
2022-08-17T02:00:15.096Z,73
2022-08-17T02:05:15.105Z,73
2022-08-17T02:10:18.993Z,72
2022-08-17T02:15:15.090Z,73
2022-08-17T02:20:15.090Z,73
2022-08-17T02:25:15.091Z,73
2022-08-17T02:30:50.266Z,73
2022-08-17T02:35:15.103Z,72
2022-08-17T02:40:15.183Z,73
2022-08-17T02:45:15.112Z,72
2022-08-17T02:50:15.110Z,72
2022-08-17T02:55:15.111Z,72
2022-08-17T03:00:15.092Z,72
2022-08-17T03:05:15.097Z,72
2022-08-17T03:10:15.098Z,72
2022-08-17T03:15:15.098Z,72
2022-08-17T03:20:15.087Z,72
2022-08-17T03:25:15.099Z,72
2022-08-17T03:30:15.095Z,72
2022-08-17T03:35:15.097Z,72
2022-08-17T03:40:15.181Z,72
2022-08-17T03:45:15.618Z,73
2022-08-17T03:50:15.100Z,73
2022-08-17T03:55:15.092Z,73
2022-08-17T04:00:15.088Z,73
2022-08-17T04:05:15.097Z,73
2022-08-17T04:10:15.088Z,73
2022-08-17T04:15:15.104Z,73
2022-08-17T04:20:15.100Z,73
2022-08-17T04:25:15.121Z,73
2022-08-17T04:30:15.104Z,73
2022-08-17T04:35:15.103Z,73
2022-08-17T04:40:15.105Z,73
2022-08-17T04:45:15.099Z,72
2022-08-17T04:50:15.089Z,72
2022-08-17T04:55:15.092Z,71
2022-08-17T05:00:15.087Z,71
2022-08-17T05:05:15.094Z,71
2022-08-17T05:10:15.084Z,71
2022-08-17T05:15:15.094Z,71
2022-08-17T05:20:15.088Z,69
2022-08-17T05:25:15.100Z,69
2022-08-17T05:30:15.085Z,69
2022-08-17T05:35:15.092Z,68
2022-08-17T05:40:15.097Z,68
2022-08-17T05:45:15.105Z,68
2022-08-17T05:50:18.030Z,67
2022-08-17T05:55:15.105Z,67
2022-08-17T06:00:15.088Z,66
2022-08-17T06:05:15.101Z,66
2022-08-17T06:10:15.090Z,65
2022-08-17T06:15:15.101Z,64
2022-08-17T06:20:15.093Z,63
2022-08-17T06:25:15.102Z,63
2022-08-17T06:30:15.229Z,63
2022-08-17T06:35:15.149Z,63
2022-08-17T06:40:15.191Z,63
2022-08-17T06:45:15.199Z,63
2022-08-17T06:50:15.150Z,62
2022-08-17T06:55:17.710Z,61
2022-08-17T07:00:15.143Z,60
2022-08-17T07:05:15.308Z,60
2022-08-17T07:10:15.265Z,59
2022-08-17T07:15:15.358Z,58
2022-08-17T07:20:15.603Z,58
2022-08-17T07:25:16.019Z,57
2022-08-17T07:30:15.092Z,56
2022-08-17T07:35:16.236Z,54
2022-08-17T07:40:16.766Z,53
2022-08-17T07:45:15.111Z,53
2022-08-17T07:50:15.095Z,52
2022-08-17T07:55:15.092Z,51
2022-08-17T08:00:16.238Z,52
2022-08-17T08:05:15.104Z,51
2022-08-17T08:10:15.094Z,50
2022-08-17T08:15:15.099Z,50
2022-08-17T08:20:19.629Z,49
2022-08-17T08:25:15.097Z,47
2022-08-17T08:30:15.105Z,47
2022-08-17T08:35:15.091Z,48
2022-08-17T08:40:15.171Z,46
2022-08-17T08:45:15.094Z,45
2022-08-17T08:50:30.085Z,46
2022-08-17T08:55:15.099Z,46
2022-08-17T09:00:15.104Z,46
2022-08-17T09:05:15.824Z,43
2022-08-17T09:10:15.095Z,42
2022-08-17T09:15:15.101Z,42
2022-08-17T09:20:27.837Z,42
2022-08-17T09:25:15.090Z,42
2022-08-17T09:30:15.099Z,42
2022-08-17T09:35:15.118Z,41
2022-08-17T09:40:15.184Z,41
2022-08-17T09:45:15.102Z,42
2022-08-17T09:50:15.098Z,40
2022-08-17T09:55:15.103Z,41
2022-08-17T10:00:15.156Z,41
2022-08-17T10:05:15.100Z,41
2022-08-17T10:10:15.113Z,41
2022-08-17T10:15:15.105Z,40
2022-08-17T10:20:15.155Z,39
2022-08-17T10:25:23.362Z,37
2022-08-17T10:30:15.188Z,37
2022-08-17T10:35:15.136Z,36
2022-08-17T10:40:15.256Z,36
2022-08-17T10:45:15.095Z,36
2022-08-17T10:50:15.092Z,37
2022-08-17T10:55:15.106Z,37
2022-08-17T11:00:15.086Z,37
2022-08-17T11:05:15.102Z,36
2022-08-17T11:10:15.085Z,36
2022-08-17T11:15:15.095Z,36
2022-08-17T11:20:15.092Z,36
2022-08-17T11:25:15.100Z,37
2022-08-17T11:30:15.102Z,37
2022-08-17T11:35:15.093Z,37
2022-08-17T11:40:15.135Z,38
2022-08-17T11:45:19.402Z,38
2022-08-17T11:50:15.094Z,37
2022-08-17T11:55:34.311Z,37
2022-08-17T12:00:15.107Z,37
2022-08-17T12:05:15.115Z,38
2022-08-17T12:10:15.093Z,39
2022-08-17T12:15:15.096Z,39
2022-08-17T12:20:15.242Z,40
2022-08-17T12:25:15.098Z,40
2022-08-17T12:30:15.090Z,41
2022-08-17T12:35:15.101Z,41
2022-08-17T12:40:15.093Z,40
2022-08-17T12:45:15.092Z,41
2022-08-17T12:50:28.433Z,41
2022-08-17T12:55:15.099Z,41
2022-08-17T13:00:15.098Z,42
2022-08-17T13:05:15.097Z,43
2022-08-17T13:10:15.090Z,46
2022-08-17T13:15:15.102Z,47
2022-08-17T13:20:15.095Z,47
2022-08-17T13:25:15.096Z,48
2022-08-17T13:30:15.091Z,49
2022-08-17T13:35:28.468Z,49
2022-08-17T13:40:15.172Z,50
2022-08-17T13:45:22.433Z,50
2022-08-17T13:50:15.102Z,50
2022-08-17T13:55:15.091Z,50
2022-08-17T14:00:15.094Z,50
2022-08-17T14:05:15.112Z,50
2022-08-17T14:10:15.099Z,50
2022-08-17T14:15:15.096Z,49
2022-08-17T14:20:15.090Z,49
2022-08-17T14:25:15.090Z,49
2022-08-17T14:30:15.086Z,50
2022-08-17T14:35:15.091Z,49
2022-08-17T14:40:15.173Z,49
2022-08-17T14:45:27.185Z,48
2022-08-17T14:50:15.081Z,48
2022-08-17T14:55:15.104Z,46
2022-08-17T15:00:15.093Z,46
2022-08-17T15:05:15.105Z,47
2022-08-17T15:10:15.099Z,46
2022-08-17T15:15:15.101Z,44
2022-08-17T15:20:15.372Z,43
2022-08-17T15:25:15.106Z,42
2022-08-17T15:30:15.089Z,42
2022-08-17T15:35:15.096Z,42
2022-08-17T15:40:15.163Z,42
2022-08-17T15:45:15.096Z,43
2022-08-17T15:50:15.096Z,43
2022-08-17T15:55:15.103Z,43
2022-08-17T16:00:15.099Z,42
2022-08-17T16:05:15.138Z,41
2022-08-17T16:10:18.754Z,41
2022-08-17T16:15:15.098Z,42
2022-08-17T16:20:19.820Z,42
2022-08-17T16:25:15.094Z,41
2022-08-17T16:30:17.463Z,40
2022-08-17T16:35:15.097Z,40
2022-08-17T16:40:15.158Z,39
2022-08-17T16:45:15.104Z,39
2022-08-17T16:50:15.091Z,38
2022-08-17T16:55:15.099Z,38
2022-08-17T17:00:15.089Z,38
2022-08-17T17:05:15.096Z,39
2022-08-17T17:10:15.092Z,39
2022-08-17T17:15:18.799Z,40
2022-08-17T17:20:15.099Z,40
2022-08-17T17:25:15.115Z,45
2022-08-17T17:30:15.087Z,46
2022-08-17T17:35:15.096Z,47
2022-08-17T17:40:15.153Z,48
2022-08-17T17:45:15.107Z,48
2022-08-17T17:50:15.093Z,49
2022-08-17T17:55:15.101Z,50
2022-08-17T18:00:15.110Z,51
2022-08-17T18:05:15.099Z,52
2022-08-17T18:10:19.905Z,52
2022-08-17T18:15:15.257Z,53
2022-08-17T18:20:15.100Z,54
2022-08-17T18:25:15.104Z,54
2022-08-17T18:30:15.091Z,55
2022-08-17T18:35:15.106Z,55
2022-08-17T18:40:15.194Z,55
2022-08-17T18:45:15.120Z,57
2022-08-17T18:50:15.090Z,58
2022-08-17T18:55:15.096Z,59
2022-08-17T19:00:15.087Z,59
2022-08-17T19:05:15.099Z,59
2022-08-17T19:10:15.087Z,60
2022-08-17T19:15:15.091Z,60
2022-08-17T19:20:15.096Z,60
2022-08-17T19:25:15.255Z,61
2022-08-17T19:30:15.285Z,61
2022-08-17T19:35:17.439Z,61
2022-08-17T19:40:24.630Z,61
2022-08-17T19:45:15.097Z,62
2022-08-17T19:50:15.093Z,62
2022-08-17T19:55:19.891Z,63
2022-08-17T20:00:15.097Z,63
2022-08-17T20:05:15.093Z,63
2022-08-17T20:10:15.108Z,64
2022-08-17T20:15:15.111Z,64
2022-08-17T20:20:19.274Z,62
2022-08-17T20:25:15.098Z,61
2022-08-17T20:30:15.093Z,61
2022-08-17T20:35:15.098Z,61
2022-08-17T20:40:15.130Z,63
2022-08-17T20:45:15.104Z,64
2022-08-17T20:50:15.092Z,65
2022-08-17T20:55:15.102Z,66
2022-08-17T21:00:15.091Z,66
2022-08-17T21:05:15.106Z,66
2022-08-17T21:10:15.091Z,66
2022-08-17T21:15:15.094Z,67
2022-08-17T21:20:15.101Z,67
2022-08-17T21:25:15.099Z,66
2022-08-17T21:30:15.092Z,66
2022-08-17T21:35:15.111Z,66
2022-08-17T21:40:15.206Z,66
2022-08-17T21:45:15.099Z,65
2022-08-17T21:50:15.100Z,65
2022-08-17T21:55:15.102Z,65
2022-08-17T22:00:15.102Z,66
2022-08-17T22:05:15.134Z,67
2022-08-17T22:10:15.091Z,67
2022-08-17T22:15:15.104Z,67
2022-08-17T22:20:15.093Z,68
2022-08-17T22:25:15.102Z,67
2022-08-17T22:30:15.283Z,67
2022-08-17T22:35:15.100Z,67
2022-08-17T22:40:15.194Z,67
2022-08-17T22:45:15.102Z,67
2022-08-17T22:50:15.106Z,68
2022-08-17T22:55:15.096Z,68
2022-08-17T23:00:15.111Z,69
2022-08-17T23:05:15.091Z,69
2022-08-17T23:10:15.105Z,68
2022-08-17T23:15:15.093Z,69
2022-08-17T23:20:15.127Z,68
2022-08-17T23:25:15.097Z,68
2022-08-17T23:30:15.093Z,69
2022-08-17T23:35:15.107Z,70
2022-08-17T23:40:15.170Z,69
2022-08-17T23:45:15.105Z,69
2022-08-17T23:50:15.099Z,69
2022-08-17T23:55:15.104Z,69
